sensor_id;sensor_type;location;lat;lon;timestamp;P1;durP1;ratioP1;P2;durP2;ratioP2
39738;SDS011;25422;48.286;8.484;2023-01-10T00:02:03;1.00;;;1.00;;
39738;SDS011;25422;48.286;8.484;2023-01-10T00:04:28;1.08;;;0.95;;
39738;SDS011;25422;48.286;8.484;2023-01-10T00:06:55;0.90;;;0.90;;
39738;SDS011;25422;48.286;8.484;2023-01-10T00:09:20;1.20;;;1.10;;
39738;SDS011;25422;48.286;8.484;2023-01-10T00:11:46;1.20;;;1.10;;
39738;SDS011;25422;48.286;8.484;2023-01-10T00:14:29;1.00;;;1.00;;
39738;SDS011;25422;48.286;8.484;2023-01-10T00:16:57;0.77;;;0.77;;
39738;SDS011;25422;48.286;8.484;2023-01-10T00:19:22;1.85;;;0.90;;
39738;SDS011;25422;48.286;8.484;2023-01-10T00:21:48;0.75;;;0.75;;
39738;SDS011;25422;48.286;8.484;2023-01-10T00:24:13;4.53;;;1.00;;
39738;SDS011;25422;48.286;8.484;2023-01-10T00:26:47;0.70;;;0.70;;
39738;SDS011;25422;48.286;8.484;2023-01-10T00:29:17;0.70;;;0.70;;
39738;SDS011;25422;48.286;8.484;2023-01-10T00:31:47;0.82;;;0.82;;
39738;SDS011;25422;48.286;8.484;2023-01-10T00:34:13;0.90;;;0.90;;
39738;SDS011;25422;48.286;8.484;2023-01-10T00:36:39;1.00;;;1.00;;
39738;SDS011;25422;48.286;8.484;2023-01-10T00:39:05;1.00;;;0.90;;
39738;SDS011;25422;48.286;8.484;2023-01-10T00:41:31;3.30;;;1.10;;
39738;SDS011;25422;48.286;8.484;2023-01-10T00:44:15;3.83;;;1.70;;
39738;SDS011;25422;48.286;8.484;2023-01-10T00:46:41;1.50;;;1.40;;
39738;SDS011;25422;48.286;8.484;2023-01-10T00:49:06;2.08;;;1.13;;
39738;SDS011;25422;48.286;8.484;2023-01-10T00:51:32;2.15;;;1.38;;
39738;SDS011;25422;48.286;8.484;2023-01-10T00:53:58;1.30;;;1.20;;
39738;SDS011;25422;48.286;8.484;2023-01-10T00:56:23;1.13;;;1.10;;
39738;SDS011;25422;48.286;8.484;2023-01-10T00:58:48;2.65;;;1.52;;
39738;SDS011;25422;48.286;8.484;2023-01-10T01:01:14;3.22;;;1.63;;
39738;SDS011;25422;48.286;8.484;2023-01-10T01:03:39;3.03;;;1.77;;
39738;SDS011;25422;48.286;8.484;2023-01-10T01:06:05;4.68;;;1.92;;
39738;SDS011;25422;48.286;8.484;2023-01-10T01:08:31;3.63;;;1.90;;
39738;SDS011;25422;48.286;8.484;2023-01-10T01:10:57;3.70;;;2.03;;
39738;SDS011;25422;48.286;8.484;2023-01-10T01:13:22;4.07;;;2.05;;
39738;SDS011;25422;48.286;8.484;2023-01-10T01:15:48;3.67;;;2.10;;
39738;SDS011;25422;48.286;8.484;2023-01-10T01:18:15;4.18;;;2.38;;
39738;SDS011;25422;48.286;8.484;2023-01-10T01:20:43;3.72;;;2.00;;
39738;SDS011;25422;48.286;8.484;2023-01-10T01:23:09;4.15;;;2.30;;
39738;SDS011;25422;48.286;8.484;2023-01-10T01:25:35;5.35;;;2.80;;
39738;SDS011;25422;48.286;8.484;2023-01-10T01:28:01;4.00;;;2.67;;
39738;SDS011;25422;48.286;8.484;2023-01-10T01:30:26;2.97;;;1.85;;
39738;SDS011;25422;48.286;8.484;2023-01-10T01:32:52;2.47;;;1.88;;
39738;SDS011;25422;48.286;8.484;2023-01-10T01:35:17;3.92;;;2.13;;
39738;SDS011;25422;48.286;8.484;2023-01-10T01:37:43;2.30;;;2.10;;
39738;SDS011;25422;48.286;8.484;2023-01-10T01:40:11;2.00;;;1.80;;
39738;SDS011;25422;48.286;8.484;2023-01-10T01:42:44;2.08;;;1.88;;
39738;SDS011;25422;48.286;8.484;2023-01-10T01:45:24;2.47;;;2.08;;
39738;SDS011;25422;48.286;8.484;2023-01-10T01:47:54;2.38;;;1.80;;
39738;SDS011;25422;48.286;8.484;2023-01-10T01:53:12;3.72;;;1.73;;
39738;SDS011;25422;48.286;8.484;2023-01-10T01:55:45;4.75;;;2.00;;
39738;SDS011;25422;48.286;8.484;2023-01-10T01:58:17;2.55;;;1.80;;
39738;SDS011;25422;48.286;8.484;2023-01-10T02:00:46;1.67;;;1.58;;
39738;SDS011;25422;48.286;8.484;2023-01-10T02:03:11;4.00;;;1.77;;
39738;SDS011;25422;48.286;8.484;2023-01-10T02:05:38;1.40;;;1.30;;
39738;SDS011;25422;48.286;8.484;2023-01-10T02:08:06;4.85;;;1.15;;
39738;SDS011;25422;48.286;8.484;2023-01-10T02:10:46;2.65;;;1.60;;
39738;SDS011;25422;48.286;8.484;2023-01-10T02:13:17;4.20;;;1.40;;
39738;SDS011;25422;48.286;8.484;2023-01-10T02:15:46;3.65;;;1.40;;
39738;SDS011;25422;48.286;8.484;2023-01-10T02:18:11;1.60;;;1.25;;
39738;SDS011;25422;48.286;8.484;2023-01-10T02:21:00;3.22;;;1.63;;
39738;SDS011;25422;48.286;8.484;2023-01-10T02:23:37;1.77;;;1.20;;
39738;SDS011;25422;48.286;8.484;2023-01-10T02:34:24;7.88;;;1.90;;
39738;SDS011;25422;48.286;8.484;2023-01-10T02:37:15;6.82;;;2.28;;
39738;SDS011;25422;48.286;8.484;2023-01-10T02:42:34;5.75;;;2.50;;
39738;SDS011;25422;48.286;8.484;2023-01-10T02:47:39;12.23;;;2.90;;
39738;SDS011;25422;48.286;8.484;2023-01-10T02:51:07;6.57;;;2.22;;
39738;SDS011;25422;48.286;8.484;2023-01-10T02:53:10;8.43;;;2.15;;
39738;SDS011;25422;48.286;8.484;2023-01-10T02:58:38;5.63;;;2.33;;
39738;SDS011;25422;48.286;8.484;2023-01-10T03:04:15;8.93;;;2.58;;
39738;SDS011;25422;48.286;8.484;2023-01-10T03:06:58;5.72;;;2.50;;
39738;SDS011;25422;48.286;8.484;2023-01-10T03:09:31;9.33;;;2.57;;
39738;SDS011;25422;48.286;8.484;2023-01-10T03:12:09;7.45;;;2.75;;
39738;SDS011;25422;48.286;8.484;2023-01-10T03:14:38;6.45;;;2.53;;
39738;SDS011;25422;48.286;8.484;2023-01-10T03:17:06;9.43;;;3.53;;
39738;SDS011;25422;48.286;8.484;2023-01-10T03:19:42;7.78;;;3.00;;
39738;SDS011;25422;48.286;8.484;2023-01-10T03:22:13;12.27;;;3.95;;
39738;SDS011;25422;48.286;8.484;2023-01-10T03:24:39;15.18;;;4.30;;
39738;SDS011;25422;48.286;8.484;2023-01-10T03:29:42;17.73;;;4.20;;
39738;SDS011;25422;48.286;8.484;2023-01-10T03:32:13;16.77;;;4.40;;
39738;SDS011;25422;48.286;8.484;2023-01-10T03:34:41;13.60;;;4.40;;
39738;SDS011;25422;48.286;8.484;2023-01-10T03:39:38;12.60;;;4.30;;
39738;SDS011;25422;48.286;8.484;2023-01-10T03:42:20;13.10;;;3.95;;
39738;SDS011;25422;48.286;8.484;2023-01-10T03:45:26;12.57;;;3.65;;
39738;SDS011;25422;48.286;8.484;2023-01-10T03:47:57;13.05;;;3.95;;
39738;SDS011;25422;48.286;8.484;2023-01-10T03:50:26;10.63;;;3.95;;
39738;SDS011;25422;48.286;8.484;2023-01-10T03:52:52;13.70;;;4.30;;
39738;SDS011;25422;48.286;8.484;2023-01-10T03:55:19;10.93;;;3.85;;
39738;SDS011;25422;48.286;8.484;2023-01-10T03:57:47;14.80;;;4.07;;
39738;SDS011;25422;48.286;8.484;2023-01-10T04:00:13;11.30;;;3.55;;
39738;SDS011;25422;48.286;8.484;2023-01-10T04:02:39;12.43;;;3.88;;
39738;SDS011;25422;48.286;8.484;2023-01-10T04:05:05;12.63;;;3.92;;
39738;SDS011;25422;48.286;8.484;2023-01-10T04:07:31;14.13;;;4.00;;
39738;SDS011;25422;48.286;8.484;2023-01-10T04:09:56;14.65;;;3.90;;
39738;SDS011;25422;48.286;8.484;2023-01-10T04:12:22;14.43;;;3.63;;
39738;SDS011;25422;48.286;8.484;2023-01-10T04:14:48;15.70;;;3.97;;
39738;SDS011;25422;48.286;8.484;2023-01-10T04:17:14;11.80;;;4.88;;
39738;SDS011;25422;48.286;8.484;2023-01-10T04:19:40;20.00;;;4.95;;
39738;SDS011;25422;48.286;8.484;2023-01-10T04:22:06;19.20;;;5.38;;
39738;SDS011;25422;48.286;8.484;2023-01-10T04:24:32;16.02;;;4.57;;
39738;SDS011;25422;48.286;8.484;2023-01-10T04:26:57;14.98;;;4.75;;
39738;SDS011;25422;48.286;8.484;2023-01-10T04:29:23;15.30;;;5.18;;
39738;SDS011;25422;48.286;8.484;2023-01-10T04:31:48;31.17;;;11.00;;
39738;SDS011;25422;48.286;8.484;2023-01-10T04:34:14;43.03;;;20.65;;
39738;SDS011;25422;48.286;8.484;2023-01-10T04:36:39;11.93;;;4.70;;
39738;SDS011;25422;48.286;8.484;2023-01-10T04:39:05;35.17;;;12.15;;
39738;SDS011;25422;48.286;8.484;2023-01-10T04:41:31;22.77;;;4.60;;
39738;SDS011;25422;48.286;8.484;2023-01-10T04:43:56;12.73;;;4.60;;
39738;SDS011;25422;48.286;8.484;2023-01-10T04:46:21;20.50;;;6.55;;
39738;SDS011;25422;48.286;8.484;2023-01-10T04:48:47;15.73;;;6.78;;
39738;SDS011;25422;48.286;8.484;2023-01-10T04:51:12;15.07;;;4.47;;
39738;SDS011;25422;48.286;8.484;2023-01-10T04:53:38;14.05;;;4.30;;
39738;SDS011;25422;48.286;8.484;2023-01-10T04:56:03;13.30;;;4.22;;
39738;SDS011;25422;48.286;8.484;2023-01-10T04:58:31;15.38;;;4.80;;
39738;SDS011;25422;48.286;8.484;2023-01-10T05:00:58;12.20;;;4.30;;
39738;SDS011;25422;48.286;8.484;2023-01-10T05:03:23;11.65;;;4.22;;
39738;SDS011;25422;48.286;8.484;2023-01-10T05:05:49;13.57;;;5.75;;
39738;SDS011;25422;48.286;8.484;2023-01-10T05:08:14;18.58;;;4.10;;
39738;SDS011;25422;48.286;8.484;2023-01-10T05:10:39;13.82;;;4.60;;
39738;SDS011;25422;48.286;8.484;2023-01-10T05:13:05;18.17;;;4.97;;
39738;SDS011;25422;48.286;8.484;2023-01-10T05:15:30;17.50;;;4.40;;
39738;SDS011;25422;48.286;8.484;2023-01-10T05:17:56;19.08;;;4.78;;
39738;SDS011;25422;48.286;8.484;2023-01-10T05:20:23;14.55;;;4.38;;
39738;SDS011;25422;48.286;8.484;2023-01-10T05:22:48;14.77;;;4.40;;
39738;SDS011;25422;48.286;8.484;2023-01-10T05:25:14;14.52;;;4.40;;
39738;SDS011;25422;48.286;8.484;2023-01-10T05:27:40;12.95;;;4.75;;
39738;SDS011;25422;48.286;8.484;2023-01-10T05:30:10;13.63;;;4.82;;
39738;SDS011;25422;48.286;8.484;2023-01-10T05:32:36;17.65;;;4.70;;
39738;SDS011;25422;48.286;8.484;2023-01-10T05:35:02;12.52;;;4.00;;
39738;SDS011;25422;48.286;8.484;2023-01-10T05:37:28;15.93;;;4.10;;
39738;SDS011;25422;48.286;8.484;2023-01-10T05:39:53;14.10;;;3.80;;
39738;SDS011;25422;48.286;8.484;2023-01-10T05:42:19;16.25;;;4.78;;
39738;SDS011;25422;48.286;8.484;2023-01-10T05:44:44;16.83;;;4.30;;
39738;SDS011;25422;48.286;8.484;2023-01-10T05:47:09;13.77;;;4.50;;
39738;SDS011;25422;48.286;8.484;2023-01-10T05:49:35;17.83;;;5.78;;
39738;SDS011;25422;48.286;8.484;2023-01-10T05:52:00;18.85;;;4.65;;
39738;SDS011;25422;48.286;8.484;2023-01-10T05:54:25;19.20;;;4.78;;
39738;SDS011;25422;48.286;8.484;2023-01-10T05:56:51;15.35;;;4.38;;
39738;SDS011;25422;48.286;8.484;2023-01-10T05:59:16;20.23;;;4.68;;
39738;SDS011;25422;48.286;8.484;2023-01-10T06:01:42;17.15;;;4.47;;
39738;SDS011;25422;48.286;8.484;2023-01-10T06:04:07;21.30;;;4.60;;
39738;SDS011;25422;48.286;8.484;2023-01-10T06:06:32;19.92;;;4.63;;
39738;SDS011;25422;48.286;8.484;2023-01-10T06:08:58;16.00;;;4.55;;
39738;SDS011;25422;48.286;8.484;2023-01-10T06:11:24;14.48;;;4.13;;
39738;SDS011;25422;48.286;8.484;2023-01-10T06:16:20;12.55;;;3.80;;
39738;SDS011;25422;48.286;8.484;2023-01-10T06:18:45;16.80;;;4.38;;
39738;SDS011;25422;48.286;8.484;2023-01-10T06:21:11;11.90;;;4.63;;
39738;SDS011;25422;48.286;8.484;2023-01-10T06:23:36;22.30;;;5.07;;
39738;SDS011;25422;48.286;8.484;2023-01-10T06:26:03;18.15;;;4.57;;
39738;SDS011;25422;48.286;8.484;2023-01-10T06:28:29;18.35;;;5.25;;
39738;SDS011;25422;48.286;8.484;2023-01-10T06:30:54;14.57;;;4.18;;
39738;SDS011;25422;48.286;8.484;2023-01-10T06:33:20;17.75;;;4.43;;
39738;SDS011;25422;48.286;8.484;2023-01-10T06:35:45;20.08;;;4.10;;
39738;SDS011;25422;48.286;8.484;2023-01-10T06:38:12;15.18;;;4.93;;
39738;SDS011;25422;48.286;8.484;2023-01-10T06:40:38;13.95;;;4.60;;
39738;SDS011;25422;48.286;8.484;2023-01-10T06:43:04;21.05;;;5.32;;
39738;SDS011;25422;48.286;8.484;2023-01-10T06:45:29;19.33;;;4.50;;
39738;SDS011;25422;48.286;8.484;2023-01-10T06:47:55;17.60;;;4.72;;
39738;SDS011;25422;48.286;8.484;2023-01-10T06:50:20;19.80;;;7.18;;
39738;SDS011;25422;48.286;8.484;2023-01-10T06:52:53;38.30;;;12.95;;
39738;SDS011;25422;48.286;8.484;2023-01-10T06:55:26;31.92;;;10.35;;
39738;SDS011;25422;48.286;8.484;2023-01-10T06:57:57;14.40;;;4.65;;
39738;SDS011;25422;48.286;8.484;2023-01-10T07:00:24;17.10;;;5.25;;
39738;SDS011;25422;48.286;8.484;2023-01-10T07:02:51;14.80;;;4.10;;
39738;SDS011;25422;48.286;8.484;2023-01-10T07:05:18;19.20;;;6.25;;
39738;SDS011;25422;48.286;8.484;2023-01-10T07:07:44;15.63;;;5.10;;
39738;SDS011;25422;48.286;8.484;2023-01-10T07:10:10;16.33;;;4.30;;
39738;SDS011;25422;48.286;8.484;2023-01-10T07:12:35;14.05;;;4.80;;
39738;SDS011;25422;48.286;8.484;2023-01-10T07:15:01;14.10;;;3.72;;
39738;SDS011;25422;48.286;8.484;2023-01-10T07:17:26;14.35;;;4.47;;
39738;SDS011;25422;48.286;8.484;2023-01-10T07:19:53;13.25;;;4.72;;
39738;SDS011;25422;48.286;8.484;2023-01-10T07:22:19;10.10;;;3.72;;
39738;SDS011;25422;48.286;8.484;2023-01-10T07:24:44;19.25;;;3.95;;
39738;SDS011;25422;48.286;8.484;2023-01-10T07:27:10;9.50;;;3.55;;
39738;SDS011;25422;48.286;8.484;2023-01-10T07:29:35;16.25;;;5.53;;
39738;SDS011;25422;48.286;8.484;2023-01-10T07:32:00;12.32;;;3.70;;
39738;SDS011;25422;48.286;8.484;2023-01-10T07:34:26;14.45;;;4.63;;
39738;SDS011;25422;48.286;8.484;2023-01-10T07:36:51;18.45;;;3.88;;
39738;SDS011;25422;48.286;8.484;2023-01-10T07:39:17;10.65;;;4.22;;
39738;SDS011;25422;48.286;8.484;2023-01-10T07:41:42;10.13;;;3.60;;
39738;SDS011;25422;48.286;8.484;2023-01-10T07:44:07;13.93;;;3.80;;
39738;SDS011;25422;48.286;8.484;2023-01-10T07:46:33;15.00;;;3.65;;
39738;SDS011;25422;48.286;8.484;2023-01-10T07:48:58;12.32;;;3.55;;
39738;SDS011;25422;48.286;8.484;2023-01-10T07:51:24;10.32;;;3.05;;
39738;SDS011;25422;48.286;8.484;2023-01-10T07:53:49;12.18;;;3.40;;
39738;SDS011;25422;48.286;8.484;2023-01-10T07:56:15;15.07;;;3.17;;
39738;SDS011;25422;48.286;8.484;2023-01-10T07:58:40;9.43;;;3.30;;
39738;SDS011;25422;48.286;8.484;2023-01-10T08:01:06;15.55;;;3.63;;
39738;SDS011;25422;48.286;8.484;2023-01-10T08:03:32;12.57;;;4.57;;
39738;SDS011;25422;48.286;8.484;2023-01-10T08:06:04;22.25;;;8.18;;
39738;SDS011;25422;48.286;8.484;2023-01-10T08:08:31;15.02;;;6.95;;
39738;SDS011;25422;48.286;8.484;2023-01-10T08:11:00;23.35;;;5.22;;
39738;SDS011;25422;48.286;8.484;2023-01-10T08:13:27;19.25;;;7.70;;
39738;SDS011;25422;48.286;8.484;2023-01-10T08:15:53;14.93;;;4.72;;
39738;SDS011;25422;48.286;8.484;2023-01-10T08:18:19;15.73;;;4.25;;
39738;SDS011;25422;48.286;8.484;2023-01-10T08:20:47;12.05;;;4.20;;
39738;SDS011;25422;48.286;8.484;2023-01-10T08:23:14;11.43;;;3.70;;
39738;SDS011;25422;48.286;8.484;2023-01-10T08:25:39;13.70;;;4.43;;
39738;SDS011;25422;48.286;8.484;2023-01-10T08:28:04;13.23;;;5.40;;
39738;SDS011;25422;48.286;8.484;2023-01-10T08:30:30;13.10;;;4.60;;
39738;SDS011;25422;48.286;8.484;2023-01-10T08:32:55;8.20;;;4.32;;
39738;SDS011;25422;48.286;8.484;2023-01-10T08:35:21;10.25;;;3.75;;
39738;SDS011;25422;48.286;8.484;2023-01-10T08:37:46;8.18;;;3.47;;
39738;SDS011;25422;48.286;8.484;2023-01-10T08:40:12;13.38;;;3.90;;
39738;SDS011;25422;48.286;8.484;2023-01-10T08:42:37;14.15;;;5.05;;
39738;SDS011;25422;48.286;8.484;2023-01-10T08:45:03;17.20;;;6.13;;
39738;SDS011;25422;48.286;8.484;2023-01-10T08:47:29;18.67;;;5.20;;
39738;SDS011;25422;48.286;8.484;2023-01-10T08:49:54;8.55;;;3.80;;
39738;SDS011;25422;48.286;8.484;2023-01-10T08:52:20;12.85;;;4.00;;
39738;SDS011;25422;48.286;8.484;2023-01-10T08:54:45;12.27;;;3.67;;
39738;SDS011;25422;48.286;8.484;2023-01-10T08:57:10;9.18;;;4.10;;
39738;SDS011;25422;48.286;8.484;2023-01-10T08:59:36;7.80;;;3.95;;
39738;SDS011;25422;48.286;8.484;2023-01-10T09:02:01;12.43;;;4.50;;
39738;SDS011;25422;48.286;8.484;2023-01-10T09:04:29;11.85;;;3.90;;
39738;SDS011;25422;48.286;8.484;2023-01-10T09:06:55;10.73;;;3.22;;
39738;SDS011;25422;48.286;8.484;2023-01-10T09:09:21;6.97;;;2.90;;
39738;SDS011;25422;48.286;8.484;2023-01-10T09:11:46;12.57;;;4.00;;
39738;SDS011;25422;48.286;8.484;2023-01-10T09:14:12;8.05;;;3.75;;
39738;SDS011;25422;48.286;8.484;2023-01-10T09:16:38;16.25;;;5.57;;
39738;SDS011;25422;48.286;8.484;2023-01-10T09:19:04;7.85;;;2.47;;
39738;SDS011;25422;48.286;8.484;2023-01-10T09:21:30;7.85;;;2.28;;
39738;SDS011;25422;48.286;8.484;2023-01-10T09:23:55;9.02;;;3.15;;
39738;SDS011;25422;48.286;8.484;2023-01-10T09:26:21;13.88;;;2.53;;
39738;SDS011;25422;48.286;8.484;2023-01-10T09:28:46;6.60;;;2.15;;
39738;SDS011;25422;48.286;8.484;2023-01-10T09:31:13;10.95;;;2.90;;
39738;SDS011;25422;48.286;8.484;2023-01-10T09:33:39;5.05;;;2.10;;
39738;SDS011;25422;48.286;8.484;2023-01-10T09:36:06;5.47;;;1.77;;
39738;SDS011;25422;48.286;8.484;2023-01-10T09:38:32;8.27;;;2.53;;
39738;SDS011;25422;48.286;8.484;2023-01-10T09:43:53;5.82;;;2.00;;
39738;SDS011;25422;48.286;8.484;2023-01-10T09:49:09;7.13;;;2.00;;
39738;SDS011;25422;48.286;8.484;2023-01-10T09:51:43;9.85;;;2.58;;
39738;SDS011;25422;48.286;8.484;2023-01-10T09:54:18;7.13;;;2.95;;
39738;SDS011;25422;48.286;8.484;2023-01-10T09:56:58;8.23;;;2.72;;
39738;SDS011;25422;48.286;8.484;2023-01-10T09:59:29;9.60;;;2.30;;
39738;SDS011;25422;48.286;8.484;2023-01-10T10:02:02;8.75;;;3.13;;
39738;SDS011;25422;48.286;8.484;2023-01-10T10:04:38;6.15;;;2.20;;
39738;SDS011;25422;48.286;8.484;2023-01-10T10:07:10;6.90;;;2.10;;
39738;SDS011;25422;48.286;8.484;2023-01-10T10:09:37;4.35;;;1.80;;
39738;SDS011;25422;48.286;8.484;2023-01-10T10:12:09;6.00;;;1.92;;
39738;SDS011;25422;48.286;8.484;2023-01-10T10:15:02;8.20;;;1.92;;
39738;SDS011;25422;48.286;8.484;2023-01-10T10:17:41;5.40;;;2.22;;
39738;SDS011;25422;48.286;8.484;2023-01-10T10:23:00;6.13;;;1.80;;
39738;SDS011;25422;48.286;8.484;2023-01-10T10:28:02;7.72;;;2.38;;
39738;SDS011;25422;48.286;8.484;2023-01-10T10:36:05;7.70;;;2.25;;
39738;SDS011;25422;48.286;8.484;2023-01-10T10:38:45;3.78;;;1.80;;
39738;SDS011;25422;48.286;8.484;2023-01-10T10:41:14;6.90;;;2.20;;
39738;SDS011;25422;48.286;8.484;2023-01-10T10:43:49;5.70;;;2.00;;
39738;SDS011;25422;48.286;8.484;2023-01-10T10:46:18;8.90;;;2.10;;
39738;SDS011;25422;48.286;8.484;2023-01-10T10:51:18;6.53;;;1.88;;
39738;SDS011;25422;48.286;8.484;2023-01-10T10:53:50;5.78;;;1.88;;
39738;SDS011;25422;48.286;8.484;2023-01-10T10:56:16;10.88;;;3.10;;
39738;SDS011;25422;48.286;8.484;2023-01-10T11:01:13;8.07;;;2.17;;
39738;SDS011;25422;48.286;8.484;2023-01-10T11:03:47;5.28;;;1.42;;
39738;SDS011;25422;48.286;8.484;2023-01-10T11:06:17;6.25;;;1.75;;
39738;SDS011;25422;48.286;8.484;2023-01-10T11:08:45;6.13;;;1.90;;
39738;SDS011;25422;48.286;8.484;2023-01-10T11:13:54;9.30;;;1.85;;
39738;SDS011;25422;48.286;8.484;2023-01-10T11:16:24;8.98;;;1.90;;
39738;SDS011;25422;48.286;8.484;2023-01-10T11:21:40;5.35;;;1.83;;
39738;SDS011;25422;48.286;8.484;2023-01-10T11:26:44;13.23;;;6.80;;
39738;SDS011;25422;48.286;8.484;2023-01-10T11:31:48;15.57;;;3.45;;
39738;SDS011;25422;48.286;8.484;2023-01-10T11:34:24;13.00;;;4.07;;
39738;SDS011;25422;48.286;8.484;2023-01-10T11:37:04;8.68;;;2.13;;
39738;SDS011;25422;48.286;8.484;2023-01-10T11:39:42;5.05;;;1.90;;
39738;SDS011;25422;48.286;8.484;2023-01-10T11:42:24;5.15;;;1.60;;
39738;SDS011;25422;48.286;8.484;2023-01-10T11:44:53;7.20;;;2.92;;
39738;SDS011;25422;48.286;8.484;2023-01-10T11:47:19;7.93;;;3.20;;
39738;SDS011;25422;48.286;8.484;2023-01-10T11:49:46;8.05;;;2.42;;
39738;SDS011;25422;48.286;8.484;2023-01-10T11:52:23;6.13;;;1.60;;
39738;SDS011;25422;48.286;8.484;2023-01-10T11:54:54;6.95;;;2.08;;
39738;SDS011;25422;48.286;8.484;2023-01-10T11:57:28;8.85;;;1.98;;
39738;SDS011;25422;48.286;8.484;2023-01-10T11:59:57;11.98;;;1.83;;
39738;SDS011;25422;48.286;8.484;2023-01-10T12:04:57;4.78;;;1.85;;
39738;SDS011;25422;48.286;8.484;2023-01-10T12:07:24;4.13;;;2.33;;
39738;SDS011;25422;48.286;8.484;2023-01-10T12:09:54;5.32;;;1.75;;
39738;SDS011;25422;48.286;8.484;2023-01-10T12:14:49;7.07;;;1.65;;
39738;SDS011;25422;48.286;8.484;2023-01-10T12:17:23;4.47;;;1.70;;
39738;SDS011;25422;48.286;8.484;2023-01-10T12:19:51;5.35;;;1.85;;
39738;SDS011;25422;48.286;8.484;2023-01-10T12:22:20;5.43;;;1.60;;
39738;SDS011;25422;48.286;8.484;2023-01-10T12:24:50;7.38;;;2.00;;
39738;SDS011;25422;48.286;8.484;2023-01-10T12:27:18;6.20;;;1.80;;
39738;SDS011;25422;48.286;8.484;2023-01-10T12:30:10;3.97;;;1.50;;
39738;SDS011;25422;48.286;8.484;2023-01-10T12:32:40;6.82;;;1.88;;
39738;SDS011;25422;48.286;8.484;2023-01-10T12:35:13;6.47;;;1.83;;
39738;SDS011;25422;48.286;8.484;2023-01-10T12:37:47;4.35;;;1.60;;
39738;SDS011;25422;48.286;8.484;2023-01-10T12:40:29;9.02;;;1.83;;
39738;SDS011;25422;48.286;8.484;2023-01-10T12:43:16;7.78;;;2.35;;
39738;SDS011;25422;48.286;8.484;2023-01-10T12:46:13;8.40;;;2.45;;
39738;SDS011;25422;48.286;8.484;2023-01-10T12:48:46;5.57;;;1.63;;
39738;SDS011;25422;48.286;8.484;2023-01-10T12:51:19;7.72;;;3.08;;
39738;SDS011;25422;48.286;8.484;2023-01-10T12:53:53;8.55;;;4.43;;
39738;SDS011;25422;48.286;8.484;2023-01-10T12:56:25;16.02;;;9.63;;
39738;SDS011;25422;48.286;8.484;2023-01-10T12:59:03;10.90;;;3.83;;
39738;SDS011;25422;48.286;8.484;2023-01-10T13:01:36;5.97;;;2.75;;
39738;SDS011;25422;48.286;8.484;2023-01-10T13:04:14;12.25;;;6.40;;
39738;SDS011;25422;48.286;8.484;2023-01-10T13:06:44;6.88;;;2.33;;
39738;SDS011;25422;48.286;8.484;2023-01-10T13:09:17;9.70;;;4.05;;
39738;SDS011;25422;48.286;8.484;2023-01-10T13:11:54;8.18;;;2.22;;
39738;SDS011;25422;48.286;8.484;2023-01-10T13:14:30;14.77;;;7.45;;
39738;SDS011;25422;48.286;8.484;2023-01-10T13:17:24;7.80;;;3.95;;
39738;SDS011;25422;48.286;8.484;2023-01-10T13:22:41;6.82;;;2.30;;
39738;SDS011;25422;48.286;8.484;2023-01-10T13:25:30;14.45;;;4.20;;
39738;SDS011;25422;48.286;8.484;2023-01-10T13:28:03;10.43;;;2.25;;
39738;SDS011;25422;48.286;8.484;2023-01-10T13:30:34;10.93;;;2.72;;
39738;SDS011;25422;48.286;8.484;2023-01-10T13:33:23;7.70;;;2.17;;
39738;SDS011;25422;48.286;8.484;2023-01-10T13:35:50;7.88;;;2.17;;
39738;SDS011;25422;48.286;8.484;2023-01-10T13:38:35;7.05;;;1.98;;
39738;SDS011;25422;48.286;8.484;2023-01-10T13:41:09;8.23;;;2.72;;
39738;SDS011;25422;48.286;8.484;2023-01-10T13:44:06;22.48;;;6.82;;
39738;SDS011;25422;48.286;8.484;2023-01-10T13:46:43;10.90;;;2.42;;
39738;SDS011;25422;48.286;8.484;2023-01-10T13:51:36;8.27;;;2.83;;
39738;SDS011;25422;48.286;8.484;2023-01-10T13:56:41;8.13;;;2.38;;
39738;SDS011;25422;48.286;8.484;2023-01-10T14:02:20;8.82;;;3.75;;
39738;SDS011;25422;48.286;8.484;2023-01-10T14:04:56;7.47;;;2.33;;
39738;SDS011;25422;48.286;8.484;2023-01-10T14:07:32;3.88;;;1.75;;
39738;SDS011;25422;48.286;8.484;2023-01-10T14:10:07;9.52;;;2.88;;
39738;SDS011;25422;48.286;8.484;2023-01-10T14:12:39;6.70;;;2.55;;
39738;SDS011;25422;48.286;8.484;2023-01-10T14:17:52;9.35;;;1.85;;
39738;SDS011;25422;48.286;8.484;2023-01-10T14:20:22;6.85;;;1.90;;
39738;SDS011;25422;48.286;8.484;2023-01-10T14:23:00;10.43;;;1.90;;
39738;SDS011;25422;48.286;8.484;2023-01-10T14:25:32;8.30;;;2.42;;
39738;SDS011;25422;48.286;8.484;2023-01-10T14:28:00;5.43;;;1.42;;
39738;SDS011;25422;48.286;8.484;2023-01-10T14:30:33;7.95;;;1.80;;
39738;SDS011;25422;48.286;8.484;2023-01-10T14:33:12;8.32;;;1.80;;
39738;SDS011;25422;48.286;8.484;2023-01-10T14:35:44;8.95;;;1.92;;
39738;SDS011;25422;48.286;8.484;2023-01-10T14:38:45;5.97;;;1.65;;
39738;SDS011;25422;48.286;8.484;2023-01-10T14:41:05;8.35;;;2.65;;
39738;SDS011;25422;48.286;8.484;2023-01-10T14:43:47;13.48;;;2.40;;
39738;SDS011;25422;48.286;8.484;2023-01-10T14:46:25;8.50;;;2.63;;
39738;SDS011;25422;48.286;8.484;2023-01-10T14:48:57;8.40;;;2.08;;
39738;SDS011;25422;48.286;8.484;2023-01-10T14:51:26;8.32;;;2.30;;
39738;SDS011;25422;48.286;8.484;2023-01-10T14:53:56;7.63;;;2.28;;
39738;SDS011;25422;48.286;8.484;2023-01-10T14:56:25;9.15;;;2.25;;
39738;SDS011;25422;48.286;8.484;2023-01-10T15:01:52;7.45;;;2.30;;
39738;SDS011;25422;48.286;8.484;2023-01-10T15:04:22;4.82;;;2.00;;
39738;SDS011;25422;48.286;8.484;2023-01-10T15:09:27;17.02;;;3.80;;
39738;SDS011;25422;48.286;8.484;2023-01-10T15:11:55;14.85;;;5.05;;
39738;SDS011;25422;48.286;8.484;2023-01-10T15:14:28;15.40;;;4.93;;
39738;SDS011;25422;48.286;8.484;2023-01-10T15:17:01;6.25;;;1.90;;
39738;SDS011;25422;48.286;8.484;2023-01-10T15:19:33;8.02;;;2.47;;
39738;SDS011;25422;48.286;8.484;2023-01-10T15:22:15;9.77;;;2.10;;
39738;SDS011;25422;48.286;8.484;2023-01-10T15:27:32;11.52;;;2.50;;
39738;SDS011;25422;48.286;8.484;2023-01-10T15:30:01;8.10;;;1.95;;
39738;SDS011;25422;48.286;8.484;2023-01-10T15:32:35;9.23;;;2.20;;
39738;SDS011;25422;48.286;8.484;2023-01-10T15:35:05;10.35;;;2.33;;
39738;SDS011;25422;48.286;8.484;2023-01-10T15:37:37;17.35;;;5.22;;
39738;SDS011;25422;48.286;8.484;2023-01-10T15:40:18;9.75;;;2.28;;
39738;SDS011;25422;48.286;8.484;2023-01-10T15:45:45;10.15;;;3.22;;
39738;SDS011;25422;48.286;8.484;2023-01-10T15:50:58;5.75;;;1.88;;
39738;SDS011;25422;48.286;8.484;2023-01-10T15:59:00;9.88;;;4.70;;
39738;SDS011;25422;48.286;8.484;2023-01-10T16:01:30;9.30;;;3.00;;
39738;SDS011;25422;48.286;8.484;2023-01-10T16:03:58;9.07;;;2.90;;
39738;SDS011;25422;48.286;8.484;2023-01-10T16:06:28;10.95;;;2.28;;
39738;SDS011;25422;48.286;8.484;2023-01-10T16:08:59;8.45;;;1.92;;
39738;SDS011;25422;48.286;8.484;2023-01-10T16:11:35;8.30;;;2.30;;
39738;SDS011;25422;48.286;8.484;2023-01-10T16:14:22;11.43;;;2.63;;
39738;SDS011;25422;48.286;8.484;2023-01-10T16:16:48;6.03;;;2.00;;
39738;SDS011;25422;48.286;8.484;2023-01-10T16:19:13;5.75;;;1.95;;
39738;SDS011;25422;48.286;8.484;2023-01-10T16:21:40;13.18;;;2.83;;
39738;SDS011;25422;48.286;8.484;2023-01-10T16:24:16;7.32;;;2.10;;
39738;SDS011;25422;48.286;8.484;2023-01-10T16:26:44;6.45;;;2.35;;
39738;SDS011;25422;48.286;8.484;2023-01-10T16:29:11;10.80;;;3.25;;
39738;SDS011;25422;48.286;8.484;2023-01-10T16:31:37;8.63;;;3.03;;
39738;SDS011;25422;48.286;8.484;2023-01-10T16:34:02;11.88;;;2.92;;
39738;SDS011;25422;48.286;8.484;2023-01-10T16:36:28;7.80;;;2.60;;